TimeEDT,TemperatureF,Dew PointF,Humidity,Sea Level PressureIn,VisibilityMPH,Wind Direction,Wind SpeedMPH,Gust SpeedMPH,PrecipitationIn,Events,Conditions,WindDirDegrees,DateUTC
12:15 AM,62.1,51.1,67,30.10,10.0,NNW,6.9,-,N/A,,Clear,330,2012-09-01 04:15:00
12:33 AM,62.4,51.8,68,30.10,10.0,NNW,9.2,-,N/A,,Clear,330,2012-09-01 04:33:00
12:55 AM,61.5,51.8,70,30.10,10.0,NNW,6.9,-,N/A,,Clear,330,2012-09-01 04:55:00
1:16 AM,61.3,52.2,72,30.11,10.0,NNW,8.1,-,N/A,,Clear,340,2012-09-01 05:16:00
1:35 AM,60.8,51.8,72,30.11,10.0,NNW,8.1,-,N/A,,Clear,340,2012-09-01 05:35:00
1:55 AM,60.4,52.7,76,30.11,10.0,North,8.1,-,N/A,,Clear,350,2012-09-01 05:55:00
2:16 AM,59.9,52.9,78,30.12,10.0,North,6.9,-,N/A,,Clear,350,2012-09-01 06:16:00
2:35 AM,59.0,53.2,81,30.12,10.0,North,6.9,-,N/A,,Clear,360,2012-09-01 06:35:00
2:55 AM,59.2,54.0,83,30.12,10.0,North,5.8,-,N/A,,Clear,10,2012-09-01 06:55:00
3:15 AM,59.4,54.7,84,30.13,10.0,NNE,5.8,-,N/A,,Clear,20,2012-09-01 07:15:00
3:35 AM,58.6,55.2,88,30.13,10.0,North,5.8,-,N/A,,Clear,10,2012-09-01 07:35:00
3:55 AM,58.6,55.4,89,30.14,10.0,North,8.1,-,N/A,,Clear,10,2012-09-01 07:55:00
4:15 AM,59.5,56.1,88,30.14,10.0,North,6.9,-,N/A,,Clear,10,2012-09-01 08:15:00
4:35 AM,60.1,56.7,88,30.15,10.0,NNE,8.1,-,N/A,,Clear,20,2012-09-01 08:35:00
4:55 AM,60.1,56.7,88,30.15,10.0,NNE,8.1,-,N/A,,Clear,20,2012-09-01 08:55:00
5:15 AM,60.3,56.3,87,30.15,10.0,NNE,8.1,-,N/A,,Clear,20,2012-09-01 09:15:00
5:33 AM,59.9,56.3,88,30.16,10.0,NNE,6.9,-,N/A,,Clear,20,2012-09-01 09:33:00
6:15 AM,60.4,55.6,84,30.17,10.0,NNE,5.8,-,N/A,,Clear,30,2012-09-01 10:15:00
6:35 AM,60.3,55.6,85,30.17,10.0,NNE,5.8,-,N/A,,Clear,30,2012-09-01 10:35:00
6:55 AM,60.1,55.4,85,30.18,10.0,NNE,5.8,-,N/A,,Clear,30,2012-09-01 10:55:00
7:15 AM,58.3,55.2,90,30.19,10.0,NNE,6.9,-,N/A,,Clear,30,2012-09-01 11:15:00
7:36 AM,59.2,55.9,89,30.20,10.0,NNE,6.9,-,N/A,,Clear,20,2012-09-01 11:36:00
7:55 AM,60.6,56.3,86,30.20,10.0,NNE,6.9,-,N/A,,Clear,30,2012-09-01 11:55:00
8:15 AM,62.4,55.6,78,30.20,10.0,NE,6.9,-,N/A,,Clear,40,2012-09-01 12:15:00
8:36 AM,63.9,55.0,73,30.20,10.0,NE,6.9,-,N/A,,Clear,40,2012-09-01 12:36:00
8:55 AM,64.9,55.0,70,30.20,10.0,NNE,6.9,-,N/A,,Clear,30,2012-09-01 12:55:00
9:15 AM,65.7,54.7,68,30.20,10.0,NNE,8.1,-,N/A,,Clear,20,2012-09-01 13:15:00
9:35 AM,66.7,54.9,66,30.20,10.0,NNE,6.9,-,N/A,,Clear,20,2012-09-01 13:35:00
10:15 AM,68.9,54.1,59,30.20,10.0,NNE,4.6,-,N/A,,Clear,30,2012-09-01 14:15:00
10:34 AM,70.3,53.2,55,30.20,10.0,NE,4.6,-,N/A,,Clear,50,2012-09-01 14:34:00
10:55 AM,70.5,51.6,51,30.20,10.0,Calm,Calm,-,N/A,,Clear,0,2012-09-01 14:55:00
11:15 AM,72.7,48.0,42,30.20,10.0,North,5.8,-,N/A,,Clear,10,2012-09-01 15:15:00
11:35 AM,72.9,47.8,41,30.20,10.0,NNE,8.1,-,N/A,,Clear,30,2012-09-01 15:35:00
11:55 AM,72.5,49.6,44,30.20,10.0,NNE,9.2,-,N/A,,Clear,30,2012-09-01 15:55:00
12:15 PM,73.0,50.4,45,30.20,10.0,NNE,6.9,-,N/A,,Clear,30,2012-09-01 16:15:00
12:35 PM,73.2,49.8,44,30.19,10.0,NNE,8.1,-,N/A,,Clear,30,2012-09-01 16:35:00
12:55 PM,73.2,50.4,44,30.18,10.0,NNE,8.1,-,N/A,,Clear,30,2012-09-01 16:55:00
1:15 PM,73.8,50.9,45,30.18,10.0,NNE,4.6,-,N/A,,Clear,30,2012-09-01 17:15:00
1:35 PM,74.1,50.5,43,30.18,10.0,NE,4.6,-,N/A,,Clear,40,2012-09-01 17:35:00
1:55 PM,74.7,51.4,44,30.17,10.0,NE,5.8,-,N/A,,Clear,40,2012-09-01 17:55:00
2:15 PM,74.5,50.4,43,30.17,10.0,North,5.8,-,N/A,,Clear,10,2012-09-01 18:15:00
2:35 PM,75.2,50.4,42,30.17,10.0,NNE,6.9,-,N/A,,Clear,30,2012-09-01 18:35:00
2:55 PM,73.4,48.9,42,30.16,10.0,ENE,4.6,-,N/A,,Clear,70,2012-09-01 18:55:00
3:15 PM,75.7,47.8,37,30.15,10.0,NNE,5.8,-,N/A,,Clear,30,2012-09-01 19:15:00
3:35 PM,75.4,47.7,37,30.15,10.0,NNE,5.8,-,N/A,,Clear,20,2012-09-01 19:35:00
4:15 PM,76.6,47.8,36,30.13,10.0,Calm,Calm,-,N/A,,Clear,0,2012-09-01 20:15:00
4:35 PM,74.8,50.2,42,30.13,10.0,SSE,3.5,-,N/A,,Clear,160,2012-09-01 20:35:00
5:15 PM,73.9,49.5,42,30.13,10.0,SSW,4.6,-,N/A,,Clear,200,2012-09-01 21:15:00
5:35 PM,73.9,49.6,42,30.13,10.0,SSE,4.6,-,N/A,,Clear,160,2012-09-01 21:35:00
5:56 PM,73.8,50.2,43,30.12,10.0,South,3.5,-,N/A,,Clear,180,2012-09-01 21:56:00
6:15 PM,73.4,51.8,47,30.12,10.0,South,3.5,-,N/A,,Clear,170,2012-09-01 22:15:00
6:35 PM,73.4,53.2,49,30.12,10.0,ESE,3.5,-,N/A,,Clear,120,2012-09-01 22:35:00
6:55 PM,72.5,51.6,48,30.12,10.0,SSE,5.8,-,N/A,,Clear,160,2012-09-01 22:55:00
7:15 PM,70.9,51.8,51,30.11,10.0,SSE,3.5,-,N/A,,Clear,150,2012-09-01 23:15:00
7:35 PM,70.7,51.8,51,30.11,10.0,Calm,Calm,-,N/A,,Clear,0,2012-09-01 23:35:00
7:55 PM,68.4,53.6,59,30.11,10.0,Calm,Calm,-,N/A,,Clear,0,2012-09-01 23:55:00
8:15 PM,66.2,54.5,66,30.11,10.0,Calm,Calm,-,N/A,,Clear,0,2012-09-02 00:15:00
8:36 PM,63.7,55.8,75,30.11,10.0,Calm,Calm,-,N/A,,Clear,0,2012-09-02 00:36:00
8:55 PM,62.6,55.4,77,30.11,10.0,NE,5.8,-,N/A,,Clear,40,2012-09-02 00:55:00
9:15 PM,64.6,56.5,75,30.12,10.0,NE,6.9,-,N/A,,Clear,40,2012-09-02 01:15:00
9:35 PM,64.6,55.8,73,30.13,10.0,NNE,6.9,-,N/A,,Clear,20,2012-09-02 01:35:00
10:16 PM,63.5,56.3,77,30.13,10.0,NNE,6.9,-,N/A,,Clear,30,2012-09-02 02:16:00
10:35 PM,63.5,55.4,75,30.13,10.0,NNE,8.1,-,N/A,,Clear,30,2012-09-02 02:35:00
10:55 PM,63.3,54.9,74,30.13,10.0,NNE,6.9,-,N/A,,Clear,30,2012-09-02 02:55:00
11:15 PM,62.8,55.4,77,30.13,10.0,NNE,5.8,-,N/A,,Clear,20,2012-09-02 03:15:00
11:35 PM,62.6,55.4,77,30.13,10.0,NNE,8.1,-,N/A,,Clear,20,2012-09-02 03:35:00